Time;durP1;ratioP1;P1;durP2;ratioP2;P2;SDS_P1;SDS_P2;PMS_P1;PMS_P2;Temp;Humidity;BMP_temperature;BMP_pressure;BME280_temperature;BME280_humidity;BME280_pressure;Samples;Min_cycle;Max_cycle;Signal;HPM_P1;HPM_P2
2022/08/20 00:05:56;;;;;;;12.88;6.82;;;19.20;99.90;;;;;;5024486;28;20053;-81
2022/08/20 00:08:58;;;;;;;7.90;6.90;;;19.10;99.90;;;;;;5102154;28;20040;-81
2022/08/20 00:12:21;;;;;;;11.18;6.97;;;18.70;99.90;;;;;;5084048;28;20035;-81
2022/08/20 00:15:13;;;;;;;8.15;6.78;;;19.10;99.90;;;;;;5016465;28;20045;-81
2022/08/20 00:18:36;;;;;;;13.50;7.22;;;19.10;99.90;;;;;;4993632;28;20599;-81
2022/08/20 00:21:38;;;;;;;7.47;5.97;;;19.00;99.90;;;;;;4978056;28;20069;-82
2022/08/20 00:28:22;;;;;;;8.80;6.45;;;19.20;99.90;;;;;;5030469;28;20045;-81
2022/08/20 00:36:05;;;;;;;;;;;;;;;;;;;;;
2022/08/20 00:45:42;;;;;;;10.35;5.28;;;19.00;99.90;;;;;;4899615;28;20058;-81
2022/08/20 00:48:35;;;;;;;9.85;5.85;;;18.90;99.90;;;;;;5042005;28;20052;-81
2022/08/20 00:55:05;;;;;;;9.48;5.53;;;18.80;99.90;;;;;;4950151;28;20055;-81
2022/08/20 01:01:14;;;;;;;7.13;5.22;;;18.60;99.90;;;;;;4946480;28;20055;-81
2022/08/20 01:09:51;;;;;;;;;;;18.60;99.90;;;;;;4756951;26;20055;-81
2022/08/20 01:19:39;;;;;;;6.20;5.10;;;18.60;99.90;;;;;;5006261;28;20045;-81
2022/08/20 01:26:27;;;;;;;10.40;5.63;;;18.60;99.90;;;;;;5089378;28;20035;-81
2022/08/20 01:29:38;;;;;;;13.45;5.28;;;18.50;99.90;;;;;;5089614;28;20040;-81
2022/08/20 01:32:44;;;;;;;8.02;4.85;;;18.50;99.90;;;;;;5014909;28;20136;-81
2022/08/20 01:38:56;;;;;;;8.43;6.07;;;18.50;99.90;;;;;;5016295;28;20414;-81
2022/08/20 01:45:37;;;;;;;;;;;;;;;;;;;;;
2022/08/20 01:58:38;;;;;;;8.70;5.50;;;18.20;99.90;;;;;;5099929;28;19923;-81
2022/08/20 02:02:04;;;;;;;9.27;5.65;;;18.20;99.90;;;;;;5093544;28;20070;-81
2022/08/20 02:04:40;;;;;;;;;;;;;;;;;;;;;
2022/08/20 02:07:35;;;;;;;;;;;;;;;;;;;;;
2022/08/20 02:14:05;;;;;;;8.95;5.20;;;18.00;99.90;;;;;;5059519;28;20043;-81
2022/08/20 02:17:11;;;;;;;;;;;;;;;;;;;;;
2022/08/20 02:20:35;;;;;;;;;;;;;;;;;;;;;
2022/08/20 02:27:18;;;;;;;9.32;5.88;;;18.10;99.90;;;;;;5092971;28;20039;-81
2022/08/20 02:31:07;;;;;;;;;;;;;;;;;;;;;
2022/08/20 02:34:09;;;;;;;;;;;;;;;;;;;;;
2022/08/20 02:36:36;;;;;;;11.25;7.13;;;17.90;99.90;;;;;;5095402;28;20039;-81
2022/08/20 02:39:08;;;;;;;8.13;5.53;;;18.00;99.90;;;;;;5095228;28;20040;-81
2022/08/20 02:41:34;;;;;;;7.85;5.75;;;18.10;99.90;;;;;;5079460;28;20063;-81
2022/08/20 02:44:00;;;;;;;11.45;6.15;;;18.10;99.90;;;;;;5092176;28;20050;-81
2022/08/20 02:46:27;;;;;;;8.98;6.32;;;18.10;99.90;;;;;;5092872;28;20074;-81
2022/08/20 02:48:54;;;;;;;9.85;6.07;;;18.00;99.90;;;;;;5095523;28;20036;-80
2022/08/20 02:51:19;;;;;;;9.52;5.72;;;18.00;99.90;;;;;;5106742;28;20047;-81
2022/08/20 02:53:45;;;;;;;14.48;7.03;;;18.00;99.90;;;;;;5107523;27;20044;-81
2022/08/20 02:56:11;;;;;;;7.28;6.07;;;17.90;99.90;;;;;;5090188;28;20441;-81
2022/08/20 02:58:39;;;;;;;9.15;6.05;;;18.00;99.90;;;;;;5109523;28;20066;-81
2022/08/20 03:01:15;;;;;;;9.05;5.95;;;17.90;99.90;;;;;;5093246;28;20047;-81
2022/08/20 03:03:42;;;;;;;10.13;6.72;;;17.90;99.90;;;;;;5109645;28;20047;-81
2022/08/20 03:06:09;;;;;;;9.57;6.72;;;17.90;99.90;;;;;;5091210;28;20039;-81
2022/08/20 03:08:35;;;;;;;10.90;5.82;;;17.80;99.90;;;;;;5110144;28;20569;-81
2022/08/20 03:11:01;;;;;;;10.88;6.68;;;17.90;99.90;;;;;;5093409;28;20517;-80
2022/08/20 03:13:27;;;;;;;10.35;6.20;;;17.80;99.90;;;;;;5093894;28;20048;-80
2022/08/20 03:15:55;;;;;;;8.93;7.05;;;17.90;99.90;;;;;;5089571;28;20052;-81
2022/08/20 03:18:31;;;;;;;10.35;7.00;;;17.80;99.90;;;;;;5109931;28;20039;-81
2022/08/20 03:20:57;;;;;;;9.90;6.88;;;17.80;99.90;;;;;;5092682;28;20036;-80
2022/08/20 03:23:22;;;;;;;8.85;6.45;;;17.70;99.90;;;;;;5111678;28;20069;-80
2022/08/20 03:26:07;;;;;;;;;;;;;;;;;;;;;
2022/08/20 03:29:07;;;;;;;9.93;6.18;;;17.70;99.90;;;;;;5127363;27;20086;-81
2022/08/20 03:35:21;;;;;;;;;;;;;;;;;;;;;
2022/08/20 03:38:13;;;;;;;9.13;6.30;;;17.80;99.90;;;;;;5107442;27;20046;-81
2022/08/20 03:40:59;;;;;;;;;;;;;;;;;;;;;
2022/08/20 03:47:40;;;;;;;;;;;;;;;;;;;;;
2022/08/20 03:49:53;;;;;;;8.43;5.90;;;17.60;99.90;;;;;;5091503;27;20035;-80
2022/08/20 03:53:21;;;;;;;;;;;;;;;;;;;;;
2022/08/20 03:59:43;;;;;;;;;;;;;;;;;;;;;
2022/08/20 04:02:49;;;;;;;7.53;5.50;;;17.70;99.90;;;;;;5018388;28;20049;-81
2022/08/20 04:06:38;;;;;;;;;;;;;;;;;;;;;
2022/08/20 04:14:26;;;;;;;;;;;;;;;;;;;;;
2022/08/20 04:17:37;;;;;;;;;;;;;;;;;;;;;
2022/08/20 04:20:53;;;;;;;;;;;;;;;;;;;;;
2022/08/20 04:24:41;;;;;;;12.95;5.25;;;17.50;99.90;;;;;;5061748;27;20050;-81
2022/08/20 04:27:38;;;;;;;11.00;5.45;;;17.50;99.90;;;;;;5072041;27;20052;-81
2022/08/20 04:33:54;;;;;;;;;;;;;;;;;;;;;
2022/08/20 04:36:51;;;;;;;10.80;4.65;;;17.50;99.90;;;;;;5088284;28;20112;-81
2022/08/20 04:39:31;;;;;;;9.23;4.93;;;17.50;99.90;;;;;;5112203;27;20135;-80
2022/08/20 04:46:14;;;;;;;;;;;;;;;;;;;;;
2022/08/20 04:52:33;;;;;;;9.40;3.90;;;17.50;99.90;;;;;;5086245;28;20047;-81
2022/08/20 04:59:06;;;;;;;11.50;3.58;;;17.40;99.90;;;;;;5025680;28;20503;-81
2022/08/20 05:01:50;;;;;;;7.15;3.70;;;17.30;99.90;;;;;;5110444;28;20127;-81
2022/08/20 05:08:21;;;;;;;;;;;;;;;;;;;;;
2022/08/20 05:11:22;;;;;;;7.18;3.08;;;17.70;99.90;;;;;;5110238;28;20481;-81
2022/08/20 05:14:31;;;;;;;9.40;3.45;;;17.30;99.90;;;;;;5102703;27;20077;-81
2022/08/20 05:17:08;;;;;;;12.07;3.60;;;17.50;99.90;;;;;;5083823;27;20053;-80
2022/08/20 05:20:15;;;;;;;7.90;3.35;;;17.30;99.90;;;;;;5105981;28;20043;-80
2022/08/20 05:22:51;;;;;;;;;;;17.20;99.90;;;;;;5106133;28;20035;-81
2022/08/20 05:25:46;;;;;;;8.68;3.25;;;17.20;99.90;;;;;;5125636;28;19951;-80
2022/08/20 05:29:06;;;;;;;;;;;;;;;;;;;;;
2022/08/20 05:32:02;;;;;;;10.50;3.08;;;17.60;99.90;;;;;;5025532;28;20061;-80
2022/08/20 05:35:19;;;;;;;;;;;;;;;;;;;;;
2022/08/20 05:38:17;;;;;;;11.25;3.28;;;17.50;99.90;;;;;;5013899;28;20089;-81
2022/08/20 05:41:09;;;;;;;11.05;2.80;;;17.50;99.90;;;;;;5129130;27;20039;-80
2022/08/20 05:44:09;;;;;;;;;;;;;;;;;;;;;
2022/08/20 05:47:05;;;;;;;7.57;3.05;;;18.70;99.90;;;;;;5104663;27;20079;-80
2022/08/20 05:49:58;;;;;;;6.50;2.70;;;19.60;99.90;;;;;;5113311;27;20049;-80
2022/08/20 05:53:29;;;;;;;;;;;;;;;;;;;;;
2022/08/20 05:56:35;;;;;;;;;;;;;;;;;;;;;
2022/08/20 05:59:12;;;;;;;;;;;23.50;99.90;;;;;;5069653;28;20032;-81
2022/08/20 06:01:39;;;;;;;8.65;2.03;;;23.50;99.90;;;;;;5071101;28;19943;-81
2022/08/20 06:04:25;;;;;;;6.75;2.33;;;22.90;99.90;;;;;;5067073;28;20055;-81
2022/08/20 06:07:01;;;;;;;5.25;2.03;;;22.60;99.90;;;;;;5049209;28;20068;-81
2022/08/20 06:09:27;;;;;;;6.80;2.38;;;22.50;99.90;;;;;;5031546;28;20445;-80
2022/08/20 06:11:53;;;;;;;9.65;2.05;;;22.40;99.90;;;;;;5047795;28;20048;-81
2022/08/20 06:14:19;;;;;;;7.18;2.05;;;22.20;99.90;;;;;;5063747;28;20040;-81
2022/08/20 06:16:45;;;;;;;8.05;2.10;;;21.90;99.90;;;;;;5049598;28;20115;-81
2022/08/20 06:19:11;;;;;;;7.55;2.00;;;21.90;99.90;;;;;;5077239;28;20043;-81
2022/08/20 06:21:38;;;;;;;7.70;2.00;;;22.40;99.90;;;;;;5054490;28;20705;-81
2022/08/20 06:24:10;;;;;;;7.85;2.25;;;23.70;99.90;;;;;;5053660;28;20033;-82
2022/08/20 06:26:38;;;;;;;11.27;2.70;;;25.50;99.90;;;;;;5038355;28;20128;-82
2022/08/20 06:29:14;;;;;;;8.33;1.47;;;27.00;99.90;;;;;;5039835;28;20406;-80
2022/08/20 06:31:42;;;;;;;8.52;1.63;;;27.90;99.90;;;;;;5056245;28;20051;-80
2022/08/20 06:34:07;;;;;;;8.18;2.00;;;28.20;99.90;;;;;;5069477;28;20127;-80
2022/08/20 06:36:33;;;;;;;6.57;2.17;;;28.60;99.90;;;;;;5071224;28;20056;-80
2022/08/20 06:38:58;;;;;;;7.28;1.90;;;29.30;99.90;;;;;;5066659;28;20036;-81
2022/08/20 06:41:24;;;;;;;6.03;1.80;;;29.50;99.90;;;;;;5051181;28;20037;-80
2022/08/20 06:43:52;;;;;;;7.10;1.67;;;29.50;99.90;;;;;;5053622;28;20033;-79
2022/08/20 06:46:18;;;;;;;5.30;1.33;;;29.20;99.90;;;;;;5050983;28;20090;-80
2022/08/20 06:48:43;;;;;;;7.80;1.65;;;28.80;99.90;;;;;;5046962;28;20732;-80
2022/08/20 06:51:09;;;;;;;6.47;1.88;;;28.50;99.90;;;;;;5052050;28;20060;-81
2022/08/20 06:53:35;;;;;;;6.72;1.60;;;28.20;99.90;;;;;;5065511;28;20052;-82
2022/08/20 06:56:53;;;;;;;6.63;1.27;;;27.90;99.90;;;;;;5077069;22;20047;-81
2022/08/20 06:59:30;;;;;;;6.85;1.30;;;27.70;99.90;;;;;;5055243;28;20205;-82
2022/08/20 07:01:59;;;;;;;4.70;1.25;;;27.70;99.90;;;;;;5109730;28;20032;-83
2022/08/20 07:07:20;;;;;;;5.75;1.48;;;27.50;99.90;;;;;;5028428;28;20460;-82
2022/08/20 07:10:22;;;;;;;;;;;;;;;;;;;;;
2022/08/20 07:14:05;;;;;;;;;;;;;;;;;;;;;
2022/08/20 07:16:49;;;;;;;5.75;0.90;;;26.60;99.90;;;;;;5034010;28;20581;-82
2022/08/20 07:19:27;;;;;;;7.63;1.40;;;26.10;99.90;;;;;;5017984;28;20049;-81
2022/08/20 07:25:54;;;;;;;5.85;1.33;;;25.20;99.90;;;;;;5007390;28;20373;-82
2022/08/20 07:35:55;;;;;;;4.47;1.30;;;24.90;99.90;;;;;;5021587;28;20100;-81
2022/08/20 07:38:44;;;;;;;6.82;2.38;;;24.50;99.90;;;;;;5016803;28;20132;-80
2022/08/20 07:40:47;;;;;;;6.97;1.30;;;24.40;99.90;;;;;;5009606;28;20056;-81
2022/08/20 07:43:20;;;;;;;4.93;1.38;;;24.20;99.90;;;;;;5019708;28;20106;-80
2022/08/20 07:45:55;;;;;;;7.75;1.73;;;24.30;99.90;;;;;;5023749;28;20030;-81
2022/08/20 09:47:16;;;;;;;3.80;0.70;;;26.90;95.80;;;;;;4941877;28;20044;-83
2022/08/20 09:50:46;;;;;;;;;;;;;;;;;;;;;
2022/08/20 10:14:58;;;;;;;;;;;;;;;;;;;;;
2022/08/20 10:18:10;;;;;;;;;;;;;;;;;;;;;
2022/08/20 10:21:27;;;;;;;;;;;;;;;;;;;;;
2022/08/20 10:24:23;;;;;;;5.72;1.17;;;27.60;95.00;;;;;;4859997;29;20137;-81
2022/08/20 10:38:48;;;;;;;;;;;;;;;;;;;;;
2022/08/20 10:41:49;;;;;;;4.35;1.15;;;26.80;93.10;;;;;;4939787;29;20441;-81
2022/08/20 10:45:33;;;;;;;7.35;1.00;;;26.70;92.90;;;;;;4854028;29;20062;-81
2022/08/20 10:48:41;;;;;;;3.75;1.15;;;26.80;94.20;;;;;;4933156;28;20102;-82
2022/08/20 10:51:51;;;;;;;3.92;0.82;;;26.50;93.40;;;;;;4990856;28;20053;-81
2022/08/20 10:55:13;;;;;;;4.88;1.00;;;26.10;93.80;;;;;;4918843;28;20047;-81
2022/08/20 10:58:08;;;;;;;3.53;1.23;;;25.80;93.90;;;;;;4901099;29;20057;-82
2022/08/20 11:00:49;;;;;;;;;;;;;;;;;;;;;
2022/08/20 11:03:19;;;;;;;3.70;0.60;;;25.60;93.30;;;;;;5004780;28;20943;-81
2022/08/20 11:05:46;;;;;;;4.55;0.75;;;26.00;93.70;;;;;;5008607;28;20374;-82
2022/08/20 11:08:17;;;;;;;30.63;3.00;;;25.70;93.70;;;;;;5011270;28;20037;-82
2022/08/20 11:10:43;;;;;;;9.32;1.83;;;25.60;94.10;;;;;;5013751;28;20081;-82
2022/08/20 11:13:11;;;;;;;4.90;0.85;;;25.60;94.70;;;;;;5028248;28;20096;-81
2022/08/20 11:15:40;;;;;;;14.85;2.15;;;25.00;94.10;;;;;;5010596;28;20056;-81
2022/08/20 11:18:23;;;;;;;3.35;1.20;;;25.00;94.20;;;;;;5027333;28;20061;-85
2022/08/20 11:20:49;;;;;;;4.00;0.80;;;25.10;94.00;;;;;;5000096;28;20045;-80
2022/08/20 11:24:05;;;;;;;4.10;0.75;;;25.20;94.30;;;;;;5003184;28;20052;-85
2022/08/20 11:30:31;;;;;;;;;;;;;;;;;;;;;
2022/08/20 11:34:42;;;;;;;;;;;;;;;;;;;;;
2022/08/20 11:37:36;;;;;;;5.47;1.13;;;26.20;93.50;;;;;;4942190;28;20061;-83
2022/08/20 11:40:48;;;;;;;3.42;1.10;;;26.10;94.30;;;;;;4991093;28;20053;-83
2022/08/20 11:43:40;;;;;;;4.15;0.88;;;25.70;93.60;;;;;;5000563;28;20061;-83
2022/08/20 11:49:36;;;;;;;4.68;1.27;;;25.20;94.20;;;;;;5040355;28;20051;-83
2022/08/20 11:52:25;;;;;;;4.95;1.27;;;25.00;94.20;;;;;;5035276;28;20047;-83
2022/08/20 11:55:27;;;;;;;4.60;1.00;;;25.00;94.00;;;;;;5042764;28;20133;-84
2022/08/20 11:59:01;;;;;;;4.07;1.25;;;25.20;94.50;;;;;;5059822;28;20036;-85
2022/08/20 12:01:57;;;;;;;;;;;;;;;;;;;;;
2022/08/20 12:04:53;;;;;;;;;;;;;;;;;;;;;
2022/08/20 12:07:45;;;;;;;3.20;0.70;;;25.10;91.90;;;;;;5052191;28;20037;-84
2022/08/20 12:15:06;;;;;;;2.72;0.95;;;25.30;94.10;;;;;;5014079;28;20048;-86
2022/08/20 12:29:27;;;;;;;4.18;1.30;;;25.70;94.00;;;;;;4795642;29;20133;-81
2022/08/20 12:35:09;;;;;;;3.25;0.80;;;26.30;94.30;;;;;;4983375;22;20051;-83
2022/08/20 12:37:59;;;;;;;9.93;1.45;;;26.30;93.40;;;;;;5061423;28;20055;-80
2022/08/20 12:41:18;;;;;;;6.63;1.08;;;26.50;93.80;;;;;;5069370;28;20118;-80
2022/08/20 12:44:08;;;;;;;;;;;;;;;;;;;;;
2022/08/20 12:50:00;;;;;;;7.07;1.67;;;26.90;93.50;;;;;;5053966;28;20050;-79
2022/08/20 12:52:35;;;;;;;3.85;1.15;;;26.60;93.50;;;;;;5069507;28;20059;-81
2022/08/20 12:55:03;;;;;;;2.67;0.70;;;26.80;94.00;;;;;;5049714;28;20039;-83
2022/08/20 12:57:34;;;;;;;4.97;1.10;;;26.90;94.20;;;;;;5080550;28;20100;-82
2022/08/20 13:00:28;;;;;;;4.03;0.90;;;26.80;94.70;;;;;;5067913;28;20447;-83
2022/08/20 13:02:56;;;;;;;5.15;1.02;;;26.60;93.90;;;;;;5067175;28;20047;-83
2022/08/20 13:05:29;;;;;;;6.15;1.15;;;26.30;94.00;;;;;;5082037;28;20032;-84
2022/08/20 13:07:55;;;;;;;4.43;0.88;;;26.00;94.00;;;;;;5093033;28;20470;-83
2022/08/20 13:10:24;;;;;;;6.03;1.58;;;25.80;94.50;;;;;;5065182;28;20039;-83
2022/08/20 13:12:49;;;;;;;8.18;1.77;;;25.70;94.30;;;;;;5064345;28;20498;-83
2022/08/20 13:15:15;;;;;;;7.15;1.33;;;25.70;94.30;;;;;;5046666;28;20070;-82
2022/08/20 13:17:55;;;;;;;3.67;1.00;;;25.60;94.10;;;;;;5076825;28;20043;-84
2022/08/20 13:21:04;;;;;;;3.20;1.05;;;25.60;94.50;;;;;;5063923;28;20686;-84
2022/08/20 13:38:57;;;;;;;6.68;1.33;;;25.00;93.70;;;;;;5030285;28;20124;-83
2022/08/20 13:41:56;;;;;;;5.25;1.30;;;25.10;94.20;;;;;;5034164;28;20045;-84
2022/08/20 13:44:33;;;;;;;4.63;1.50;;;25.30;93.70;;;;;;5023387;28;20418;-83
2022/08/20 13:47:42;;;;;;;9.77;2.28;;;25.10;93.00;;;;;;5047464;28;21261;-83
2022/08/20 13:50:43;;;;;;;5.90;1.38;;;25.00;94.00;;;;;;4989115;28;20094;-85
2022/08/20 13:53:33;;;;;;;4.45;0.90;;;25.00;93.90;;;;;;5051710;28;20063;-84
2022/08/20 13:56:23;;;;;;;7.13;1.08;;;25.10;94.40;;;;;;5084323;28;20105;-84
2022/08/20 13:59:19;;;;;;;4.43;1.25;;;25.40;93.80;;;;;;5049780;28;20423;-84
2022/08/20 14:02:11;;;;;;;7.00;1.45;;;25.60;93.60;;;;;;5051916;28;20067;-84
2022/08/20 14:05:02;;;;;;;;;;;;;;;;;;;;;
2022/08/20 14:07:54;;;;;;;3.78;1.00;;;25.70;93.50;;;;;;5082622;28;20143;-85
2022/08/20 14:10:40;;;;;;;;;;;;;;;;;;;;;
2022/08/20 14:13:50;;;;;;;3.25;0.90;;;25.90;93.70;;;;;;5084052;28;20495;-85
2022/08/20 14:16:22;;;;;;;5.55;1.25;;;26.00;93.00;;;;;;5063455;28;20181;-80
2022/08/20 14:18:47;;;;;;;6.50;1.63;;;26.30;93.20;;;;;;5047038;28;20147;-81
2022/08/20 14:21:13;;;;;;;5.95;1.65;;;26.20;92.40;;;;;;5076353;28;20172;-81
2022/08/20 14:23:39;;;;;;;3.38;0.88;;;26.20;92.40;;;;;;5068993;28;20040;-81
2022/08/20 14:26:04;;;;;;;4.70;1.52;;;26.20;91.70;;;;;;5073727;28;20032;-81
2022/08/20 14:28:30;;;;;;;7.10;1.33;;;26.10;92.10;;;;;;5071528;28;20085;-81
2022/08/20 14:30:55;;;;;;;4.38;0.80;;;25.80;91.90;;;;;;5069845;28;20051;-81
2022/08/20 14:33:22;;;;;;;3.97;1.58;;;25.70;92.10;;;;;;5088002;28;20048;-80
2022/08/20 14:35:48;;;;;;;8.35;1.38;;;25.60;92.50;;;;;;5074869;28;20060;-81
2022/08/20 14:38:14;;;;;;;6.15;1.40;;;25.40;92.10;;;;;;5058282;28;20043;-81
2022/08/20 14:40:39;;;;;;;7.20;1.23;;;25.30;92.50;;;;;;5071910;28;20040;-81
2022/08/20 14:43:05;;;;;;;7.65;1.35;;;25.20;93.20;;;;;;5071270;28;20040;-82
2022/08/20 14:45:30;;;;;;;6.65;2.08;;;25.10;92.80;;;;;;5068442;28;20048;-82
2022/08/20 14:47:58;;;;;;;5.93;1.10;;;25.00;93.00;;;;;;5068503;28;20040;-82
2022/08/20 14:50:27;;;;;;;6.72;1.75;;;24.90;93.00;;;;;;5068171;28;20573;-81
2022/08/20 14:52:54;;;;;;;5.35;1.23;;;25.00;93.10;;;;;;5072472;28;20040;-82
2022/08/20 14:56:07;;;;;;;;;;;;;;;;;;;;;
2022/08/20 14:58:49;;;;;;;8.80;1.33;;;25.20;92.80;;;;;;5044203;28;20153;-82
2022/08/20 15:01:18;;;;;;;5.28;1.15;;;25.30;92.40;;;;;;5087360;28;20063;-80
2022/08/20 15:03:44;;;;;;;5.00;1.00;;;25.30;92.70;;;;;;5088449;28;20055;-81
2022/08/20 15:06:09;;;;;;;3.45;1.02;;;25.30;92.90;;;;;;5072507;28;20048;-79
2022/08/20 15:08:35;;;;;;;6.75;1.55;;;25.30;93.10;;;;;;5091164;28;20047;-80
2022/08/20 15:11:00;;;;;;;11.00;1.55;;;25.30;93.30;;;;;;5072790;28;20044;-81
2022/08/20 15:13:26;;;;;;;5.05;0.95;;;25.10;92.50;;;;;;5090227;28;20136;-80
2022/08/20 15:15:52;;;;;;;5.65;1.10;;;25.00;92.00;;;;;;5092138;28;20037;-82
2022/08/20 15:18:18;;;;;;;4.78;1.10;;;24.90;92.70;;;;;;5062126;28;20074;-82
2022/08/20 15:20:44;;;;;;;4.30;1.08;;;24.80;93.10;;;;;;5064645;28;20134;-83
2022/08/20 15:23:09;;;;;;;3.55;0.98;;;24.80;93.10;;;;;;5068735;28;20083;-81
2022/08/20 15:25:35;;;;;;;4.53;1.63;;;24.80;92.80;;;;;;5084239;28;20032;-81
2022/08/20 15:28:03;;;;;;;5.95;1.35;;;24.80;92.50;;;;;;5079153;28;20048;-81
2022/08/20 15:30:30;;;;;;;6.32;1.38;;;24.90;93.70;;;;;;5069686;28;20040;-82
2022/08/20 15:32:56;;;;;;;3.38;0.85;;;25.00;93.40;;;;;;5055233;28;20084;-82
2022/08/20 15:35:23;;;;;;;4.25;1.25;;;25.00;92.50;;;;;;5094745;28;20036;-78
2022/08/20 15:37:50;;;;;;;7.13;1.20;;;24.90;92.30;;;;;;5074115;28;20048;-79
2022/08/20 15:40:19;;;;;;;4.97;1.33;;;24.70;93.20;;;;;;5058275;28;20044;-79
2022/08/20 15:42:45;;;;;;;4.70;1.77;;;24.60;93.40;;;;;;5091712;28;20055;-80
2022/08/20 15:45:13;;;;;;;5.07;1.10;;;24.30;94.20;;;;;;5069942;28;20055;-81
2022/08/20 15:48:06;;;;;;;4.03;1.00;;;24.30;94.30;;;;;;5074126;28;20044;-80
2022/08/20 15:50:47;;;;;;;7.03;2.15;;;24.20;93.80;;;;;;5092245;28;20044;-80
2022/08/20 15:53:25;;;;;;;8.38;1.25;;;24.10;93.90;;;;;;5088657;28;20048;-80
2022/08/20 15:56:06;;;;;;;5.70;1.15;;;24.10;94.40;;;;;;5072875;28;20036;-80
2022/08/20 15:58:45;;;;;;;4.80;1.00;;;24.10;94.60;;;;;;5089305;28;20055;-80
2022/08/20 16:01:17;;;;;;;7.65;1.60;;;24.00;94.00;;;;;;5075471;28;20048;-81
2022/08/20 16:03:59;;;;;;;6.15;2.00;;;24.10;94.10;;;;;;5087122;28;20446;-80
2022/08/20 16:06:31;;;;;;;5.28;1.10;;;24.10;93.00;;;;;;5085443;28;20046;-84
2022/08/20 16:09:17;;;;;;;3.65;0.77;;;24.10;93.00;;;;;;5065106;28;20092;-82
2022/08/20 16:12:31;;;;;;;5.85;1.00;;;24.00;94.70;;;;;;5055370;28;20052;-80
2022/08/20 16:15:32;;;;;;;6.03;1.10;;;24.00;94.70;;;;;;5068621;28;20043;-77
2022/08/20 16:18:09;;;;;;;5.43;1.48;;;24.00;94.00;;;;;;5062858;28;20086;-80
2022/08/20 16:20:40;;;;;;;3.95;0.80;;;24.00;94.50;;;;;;5091307;28;20561;-80
2022/08/20 16:23:06;;;;;;;6.63;1.70;;;23.90;94.20;;;;;;5070985;28;20036;-81
2022/08/20 16:25:49;;;;;;;6.00;1.27;;;23.80;93.30;;;;;;5077444;28;20426;-81
2022/08/20 16:28:39;;;;;;;4.95;1.50;;;23.90;93.30;;;;;;5089125;28;20059;-81
2022/08/20 16:31:09;;;;;;;7.82;1.65;;;23.80;93.90;;;;;;5071219;28;20050;-82
2022/08/20 16:33:59;;;;;;;5.18;1.48;;;23.80;94.00;;;;;;5070364;28;20040;-81
2022/08/20 16:36:36;;;;;;;4.78;1.20;;;23.70;94.00;;;;;;5074046;28;20051;-81
2022/08/20 16:39:07;;;;;;;5.93;1.15;;;23.70;94.00;;;;;;5067637;28;20169;-78
2022/08/20 16:41:36;;;;;;;5.80;1.38;;;23.70;94.50;;;;;;5066454;28;20047;-80
2022/08/20 16:44:31;;;;;;;7.78;1.88;;;23.60;94.40;;;;;;5090258;28;20058;-80
2022/08/20 16:47:18;;;;;;;4.38;1.27;;;23.50;94.60;;;;;;5057448;28;20063;-81
2022/08/20 16:49:58;;;;;;;6.72;1.50;;;23.40;95.30;;;;;;5066205;28;20115;-81
2022/08/20 16:52:24;;;;;;;5.60;1.50;;;23.40;95.60;;;;;;5060912;28;20036;-79
2022/08/20 16:54:49;;;;;;;5.75;1.83;;;23.30;94.80;;;;;;5075296;28;20046;-81
2022/08/20 16:57:17;;;;;;;3.65;1.40;;;23.30;95.20;;;;;;5062282;28;20036;-80
2022/08/20 17:00:14;;;;;;;8.50;1.30;;;23.20;95.50;;;;;;5053857;28;20098;-79
2022/08/20 17:02:55;;;;;;;6.88;1.58;;;23.20;95.00;;;;;;5043206;28;20044;-81
2022/08/20 17:05:24;;;;;;;5.55;1.10;;;23.20;95.50;;;;;;5082186;28;20063;-80
2022/08/20 17:07:53;;;;;;;6.25;1.55;;;23.20;95.70;;;;;;5069306;28;20044;-80
2022/08/20 17:10:27;;;;;;;5.85;1.25;;;23.10;95.80;;;;;;5066774;28;20044;-79
2022/08/20 17:12:58;;;;;;;5.82;1.23;;;23.10;95.20;;;;;;5064765;28;20044;-81
2022/08/20 17:15:31;;;;;;;7.45;1.20;;;23.00;96.00;;;;;;5065564;28;20051;-80
2022/08/20 17:18:14;;;;;;;7.90;1.48;;;22.90;96.30;;;;;;5062335;28;20036;-81
2022/08/20 17:20:44;;;;;;;5.97;1.33;;;22.80;96.00;;;;;;5071600;28;20082;-81
2022/08/20 17:23:16;;;;;;;6.22;1.38;;;22.70;96.20;;;;;;5068417;28;20059;-82
2022/08/20 17:25:43;;;;;;;6.15;1.27;;;22.60;96.50;;;;;;5080208;28;20040;-79
2022/08/20 17:28:18;;;;;;;5.30;0.98;;;22.60;96.20;;;;;;5097441;28;20040;-80
2022/08/20 17:30:44;;;;;;;5.03;1.40;;;22.50;96.60;;;;;;5100926;28;20041;-80
2022/08/20 17:33:27;;;;;;;5.00;1.65;;;22.40;96.70;;;;;;5066843;28;20048;-80
2022/08/20 17:35:56;;;;;;;6.90;1.58;;;22.40;97.10;;;;;;5082275;28;20258;-80
2022/08/20 17:38:58;;;;;;;6.03;1.73;;;22.30;97.20;;;;;;5065420;28;20044;-81
2022/08/20 17:41:28;;;;;;;4.25;1.40;;;22.20;97.00;;;;;;5080152;28;20056;-80
2022/08/20 17:44:03;;;;;;;6.28;1.70;;;22.20;97.00;;;;;;5083388;28;20040;-82
2022/08/20 17:46:34;;;;;;;5.32;1.20;;;22.10;97.40;;;;;;5095698;28;20506;-80
2022/08/20 17:49:05;;;;;;;5.80;1.52;;;22.00;97.40;;;;;;5077802;28;20044;-81
2022/08/20 17:51:48;;;;;;;10.18;2.25;;;22.00;97.80;;;;;;5081576;28;20175;-80
2022/08/20 17:54:44;;;;;;;8.55;2.22;;;22.00;97.80;;;;;;5097207;28;20058;-82
2022/08/20 17:57:12;;;;;;;5.40;1.63;;;21.90;98.00;;;;;;5098400;28;20048;-80
2022/08/20 17:59:51;;;;;;;6.55;1.60;;;21.80;98.10;;;;;;5101108;28;20077;-80
2022/08/20 18:02:17;;;;;;;5.68;1.65;;;21.80;98.20;;;;;;5077601;28;20052;-80
2022/08/20 18:04:47;;;;;;;6.68;1.35;;;21.80;97.90;;;;;;5083217;28;20036;-82
2022/08/20 18:07:24;;;;;;;6.80;1.10;;;21.60;98.10;;;;;;5067684;28;20090;-80
2022/08/20 18:10:07;;;;;;;9.18;2.17;;;21.60;98.80;;;;;;5078255;28;20051;-80
2022/08/20 18:13:00;;;;;;;8.90;1.63;;;21.50;99.10;;;;;;5081971;28;20044;-81
2022/08/20 18:15:32;;;;;;;5.57;1.02;;;21.40;99.80;;;;;;5094162;28;20055;-79
2022/08/20 18:18:16;;;;;;;8.90;1.75;;;21.30;99.90;;;;;;5097394;28;20032;-79
2022/08/20 18:21:01;;;;;;;5.63;1.42;;;21.30;99.90;;;;;;5076347;28;20056;-78
2022/08/20 18:23:51;;;;;;;9.48;1.73;;;21.20;99.90;;;;;;5093672;28;20059;-79
2022/08/20 18:26:24;;;;;;;7.03;1.52;;;21.20;99.90;;;;;;5093961;28;20063;-79
2022/08/20 18:28:53;;;;;;;9.45;1.98;;;21.10;99.90;;;;;;5076728;28;20048;-79
2022/08/20 18:31:32;;;;;;;3.85;1.40;;;21.00;99.90;;;;;;5076305;28;20032;-79
2022/08/20 18:34:14;;;;;;;6.20;1.33;;;20.90;99.90;;;;;;5061613;28;20043;-79
2022/08/20 18:36:39;;;;;;;3.60;1.13;;;20.80;99.90;;;;;;5077674;28;20056;-79
2022/08/20 18:39:27;;;;;;;14.77;1.90;;;20.80;99.90;;;;;;5095798;28;20035;-79
2022/08/20 18:42:05;;;;;;;8.40;1.35;;;20.70;99.90;;;;;;5091468;28;20044;-79
2022/08/20 18:44:36;;;;;;;9.27;1.42;;;20.60;99.90;;;;;;5062711;28;20044;-79
2022/08/20 18:47:04;;;;;;;9.82;1.85;;;20.50;99.90;;;;;;5090980;28;20035;-79
2022/08/20 18:49:34;;;;;;;51.45;3.97;;;20.40;99.90;;;;;;5089105;28;20758;-79
2022/08/20 18:52:13;;;;;;;45.67;4.93;;;20.40;99.90;;;;;;5067875;28;20123;-79
2022/08/20 18:54:47;;;;;;;101.75;7.85;;;20.60;99.90;;;;;;5093241;28;20044;-79
2022/08/20 18:57:26;;;;;;;284.90;29.20;;;20.30;99.90;;;;;;5074123;28;20100;-79
2022/08/20 19:00:04;;;;;;;37.30;3.50;;;20.20;99.90;;;;;;5090697;28;20038;-79
2022/08/20 19:02:34;;;;;;;5.10;1.30;;;20.10;99.90;;;;;;5084203;28;20081;-79
2022/08/20 19:05:10;;;;;;;106.13;15.18;;;20.00;99.90;;;;;;5089610;28;20104;-79
2022/08/20 19:07:41;;;;;;;4.55;1.52;;;20.00;99.90;;;;;;5058725;28;20036;-79
2022/08/20 19:10:19;;;;;;;8.38;1.30;;;19.90;99.90;;;;;;5077070;28;20032;-79
2022/08/20 19:13:09;;;;;;;10.55;1.80;;;19.90;99.90;;;;;;5071711;28;20044;-79
2022/08/20 19:15:41;;;;;;;14.48;2.17;;;19.90;99.90;;;;;;5081977;28;20044;-79
2022/08/20 19:18:16;;;;;;;12.75;1.73;;;19.80;99.90;;;;;;5072808;28;20113;-78
2022/08/20 19:20:53;;;;;;;6.55;1.30;;;19.80;99.90;;;;;;5072894;28;20044;-79
2022/08/20 19:23:22;;;;;;;8.65;1.70;;;19.70;99.90;;;;;;5064468;28;20091;-80
2022/08/20 19:26:01;;;;;;;5.65;1.00;;;19.60;99.90;;;;;;5068010;28;20089;-80
2022/08/20 19:28:47;;;;;;;5.78;1.02;;;19.50;99.90;;;;;;5066297;28;20130;-78
2022/08/20 19:31:33;;;;;;;5.32;1.10;;;19.40;99.90;;;;;;5081034;28;20085;-80
2022/08/20 19:34:04;;;;;;;6.82;1.30;;;19.40;99.90;;;;;;5067870;28;20051;-80
2022/08/20 19:36:31;;;;;;;7.90;1.30;;;19.40;99.90;;;;;;5069518;28;20054;-80
2022/08/20 19:38:59;;;;;;;7.93;1.60;;;19.30;99.90;;;;;;5066776;28;20117;-78
2022/08/20 19:41:29;;;;;;;7.68;1.33;;;19.30;99.90;;;;;;5079803;28;20051;-79
2022/08/20 19:43:55;;;;;;;5.32;1.10;;;19.20;99.90;;;;;;5084281;28;20067;-81
2022/08/20 19:46:36;;;;;;;5.10;0.93;;;19.20;99.90;;;;;;5082531;28;20063;-80
2022/08/20 19:49:20;;;;;;;4.20;1.13;;;19.10;99.90;;;;;;5065665;28;20040;-80
2022/08/20 19:52:11;;;;;;;10.43;1.45;;;19.10;99.90;;;;;;5065605;28;20048;-81
2022/08/20 19:54:48;;;;;;;3.58;0.80;;;19.00;99.90;;;;;;5070763;28;20128;-82
2022/08/20 19:57:18;;;;;;;4.32;1.60;;;18.90;99.90;;;;;;5064774;28;20094;-82
2022/08/20 19:59:58;;;;;;;4.97;1.10;;;18.90;99.90;;;;;;5086067;28;20047;-81
2022/08/20 20:02:27;;;;;;;3.85;1.02;;;18.80;99.90;;;;;;5067387;28;20047;-81
2022/08/20 20:04:53;;;;;;;9.82;1.25;;;18.70;99.90;;;;;;5067146;28;20040;-81
2022/08/20 20:07:21;;;;;;;5.43;1.20;;;18.70;99.90;;;;;;5049846;28;20046;-81
2022/08/20 20:09:50;;;;;;;6.95;1.27;;;18.60;99.90;;;;;;5066545;28;20048;-81
2022/08/20 20:12:16;;;;;;;6.78;1.52;;;18.80;99.90;;;;;;5064229;28;20441;-79